createdAt,value
2022-11-28T00:02:55.434Z,2.38
2022-11-28T00:06:06.332Z,2.38
2022-11-28T00:09:13.416Z,2.31
2022-11-28T00:12:19.584Z,2.26
2022-11-28T00:15:25.724Z,2.28
2022-11-28T00:18:32.558Z,2.31
2022-11-28T00:21:39.061Z,2.30
2022-11-28T00:24:45.273Z,2.31
2022-11-28T00:27:51.545Z,2.34
2022-11-28T00:30:56.172Z,2.34
2022-11-28T00:34:03.050Z,2.34
2022-11-28T00:37:09.020Z,2.36
2022-11-28T00:40:15.367Z,2.37
2022-11-28T00:43:21.449Z,2.37
2022-11-28T00:46:28.549Z,2.38
2022-11-28T00:49:34.656Z,2.37
2022-11-28T00:52:40.840Z,2.36
2022-11-28T00:55:47.225Z,2.36
2022-11-28T00:58:53.791Z,2.30
2022-11-28T01:01:59.907Z,2.27
2022-11-28T01:05:06.598Z,2.29
2022-11-28T01:08:12.891Z,2.30
2022-11-28T01:11:17.445Z,2.31
2022-11-28T01:14:25.063Z,2.32
2022-11-28T01:17:31.188Z,2.32
2022-11-28T01:20:37.250Z,2.34
2022-11-28T01:23:43.324Z,2.34
2022-11-28T01:26:49.557Z,2.34
2022-11-28T01:29:55.836Z,2.33
2022-11-28T01:33:00.336Z,2.33
2022-11-28T01:36:07.969Z,2.33
2022-11-28T01:39:15.926Z,2.33
2022-11-28T01:42:22.973Z,2.33
2022-11-28T01:45:36.227Z,2.33
2022-11-28T01:48:44.832Z,2.32
2022-11-28T01:51:56.053Z,2.31
2022-11-28T01:55:03.513Z,2.32
2022-11-28T01:58:10.778Z,2.31
2022-11-28T02:01:18.029Z,2.28
2022-11-28T02:04:27.152Z,2.27
2022-11-28T02:07:33.573Z,2.27
2022-11-28T02:10:51.537Z,2.27
2022-11-28T02:14:08.523Z,2.28
2022-11-28T02:17:23.779Z,2.28
2022-11-28T02:20:59.115Z,2.25
2022-11-28T02:24:41.385Z,2.19
2022-11-28T02:28:13.876Z,2.16
2022-11-28T02:31:36.623Z,2.17
2022-11-28T02:34:52.296Z,2.17
2022-11-28T02:38:10.542Z,2.09
2022-11-28T02:41:27.132Z,2.03
2022-11-28T02:44:40.073Z,2.05
2022-11-28T02:47:51.381Z,2.08
2022-11-28T02:51:02.623Z,2.09
2022-11-28T02:54:11.811Z,2.02
2022-11-28T02:57:17.873Z,1.96
2022-11-28T03:00:30.761Z,1.99
2022-11-28T03:03:49.933Z,2.04
2022-11-28T03:07:06.720Z,2.07
2022-11-28T03:10:24.736Z,2.09
2022-11-28T03:13:47.603Z,2.11
2022-11-28T03:17:08.726Z,2.13
2022-11-28T03:20:24.914Z,2.11
2022-11-28T03:23:34.724Z,2.08
2022-11-28T03:26:49.474Z,2.08
2022-11-28T03:30:01.910Z,2.08
2022-11-28T03:33:09.780Z,2.08
2022-11-28T03:36:22.697Z,2.07
2022-11-28T03:39:33.436Z,2.04
2022-11-28T03:42:43.829Z,2.05
2022-11-28T03:45:53.564Z,2.07
2022-11-28T03:49:02.221Z,2.08
2022-11-28T03:52:11.651Z,2.09
2022-11-28T03:55:23.564Z,2.06
2022-11-28T03:58:36.150Z,2.05
2022-11-28T04:01:53.849Z,2.06
2022-11-28T04:05:04.752Z,2.04
2022-11-28T04:08:18.589Z,1.99
2022-11-28T04:11:31.003Z,1.97
2022-11-28T04:14:39.764Z,1.97
2022-11-28T04:17:52.307Z,1.99
2022-11-28T04:21:04.724Z,1.97
2022-11-28T04:24:16.346Z,1.98
2022-11-28T04:27:25.446Z,2.01
2022-11-28T04:30:31.599Z,2.02
2022-11-28T04:33:41.058Z,1.97
2022-11-28T04:36:50.825Z,1.83
2022-11-28T04:39:58.119Z,1.75
2022-11-28T04:43:09.810Z,1.79
2022-11-28T04:46:19.462Z,1.83
2022-11-28T04:49:27.707Z,1.84
2022-11-28T04:52:41.611Z,1.83
2022-11-28T04:55:53.464Z,1.78
2022-11-28T04:59:01.618Z,1.73
2022-11-28T05:02:10.032Z,1.75
2022-11-28T05:05:19.384Z,1.79
2022-11-28T05:08:26.534Z,1.83
2022-11-28T05:11:33.266Z,1.86
2022-11-28T05:14:41.123Z,1.88
2022-11-28T05:17:47.904Z,1.88
2022-11-28T05:20:53.896Z,1.87
2022-11-28T05:24:00.217Z,1.87
2022-11-28T05:27:04.618Z,1.88
2022-11-28T05:30:14.181Z,1.84
2022-11-28T05:33:20.228Z,1.82
2022-11-28T05:36:26.647Z,1.83
2022-11-28T05:39:33.141Z,1.84
2022-11-28T05:42:39.485Z,1.86
2022-11-28T05:45:44.587Z,1.88
2022-11-28T05:48:50.889Z,1.89
2022-11-28T05:51:57.027Z,1.92
2022-11-28T05:55:03.247Z,1.95
2022-11-28T05:58:09.852Z,1.96
2022-11-28T06:01:18.360Z,1.97
2022-11-28T06:04:24.589Z,1.98
2022-11-28T06:07:30.825Z,1.95
2022-11-28T06:10:35.692Z,1.93
2022-11-28T06:13:41.867Z,1.92
2022-11-28T06:16:47.885Z,1.92
2022-11-28T06:19:54.126Z,1.93
2022-11-28T06:23:00.143Z,1.91
2022-11-28T06:26:09.885Z,1.88
2022-11-28T06:29:16.303Z,1.87
2022-11-28T06:32:22.470Z,1.82
2022-11-28T06:35:28.696Z,1.78
2022-11-28T06:38:35.327Z,1.79
2022-11-28T06:41:41.597Z,1.80
2022-11-28T06:44:47.671Z,1.83
2022-11-28T06:47:53.838Z,1.85
2022-11-28T06:51:06.068Z,1.86
2022-11-28T06:54:12.678Z,1.84
2022-11-28T06:57:19.129Z,1.79
2022-11-28T07:00:25.487Z,1.78
2022-11-28T07:03:29.997Z,1.81
2022-11-28T07:06:36.773Z,1.83
2022-11-28T07:09:43.192Z,1.85
2022-11-28T07:12:54.207Z,1.90
2022-11-28T07:16:00.302Z,1.96
2022-11-28T07:19:06.996Z,1.92
2022-11-28T07:34:50.326Z,2.37
2022-11-28T07:37:53.992Z,2.54
2022-11-28T07:41:03.667Z,2.52
2022-11-28T07:44:07.279Z,2.52
2022-11-28T07:47:10.715Z,2.50
2022-11-28T07:50:14.078Z,2.52
2022-11-28T07:53:17.687Z,2.55
2022-11-28T07:56:22.254Z,2.56
2022-11-28T07:59:25.723Z,2.54
2022-11-28T08:02:31.732Z,2.52
2022-11-28T08:05:35.213Z,2.56
2022-11-28T08:08:38.709Z,2.60
2022-11-28T08:11:42.588Z,2.65
2022-11-28T08:14:46.190Z,2.69
2022-11-28T08:17:49.693Z,2.74
2022-11-28T08:20:52.961Z,2.78
2022-11-28T08:23:58.944Z,2.79
2022-11-28T08:27:02.373Z,2.84
2022-11-28T08:30:08.816Z,2.87
2022-11-28T08:33:13.239Z,2.90
2022-11-28T08:36:18.611Z,2.97
2022-11-28T08:39:24.955Z,3.03
2022-11-28T08:42:29.676Z,3.08
2022-11-28T08:45:34.429Z,3.14
2022-11-28T08:48:38.627Z,3.17
2022-11-28T08:51:42.137Z,3.20
2022-11-28T08:54:45.846Z,3.24
2022-11-28T08:57:49.444Z,3.28
2022-11-28T09:00:52.880Z,3.34
2022-11-28T09:03:57.003Z,3.40
2022-11-28T09:07:00.512Z,3.44
2022-11-28T09:10:05.948Z,3.47
2022-11-28T09:13:09.816Z,3.52
2022-11-28T09:16:14.334Z,3.55
2022-11-28T09:19:17.833Z,3.62
2022-11-28T09:22:21.265Z,3.71
2022-11-28T09:25:24.781Z,3.81
2022-11-28T09:28:28.318Z,3.85
2022-11-28T09:31:31.825Z,3.92
2022-11-28T09:34:35.239Z,3.97
2022-11-28T09:37:38.573Z,4.03
2022-11-28T09:40:44.498Z,4.05
2022-11-28T09:43:54.545Z,4.06
2022-11-28T09:47:02.155Z,4.06
2022-11-28T09:50:14.769Z,4.07
2022-11-28T09:53:24.454Z,4.09
2022-11-28T09:56:28.833Z,4.09
2022-11-28T09:59:32.577Z,4.07
2022-11-28T10:02:43.416Z,4.07
2022-11-28T10:05:53.470Z,4.09
2022-11-28T10:09:15.390Z,4.06
2022-11-28T10:12:33.035Z,4.06
2022-11-28T10:15:44.417Z,4.07
2022-11-28T10:18:50.772Z,4.10
2022-11-28T10:21:59.305Z,4.13
2022-11-28T10:25:11.214Z,4.17
2022-11-28T10:28:18.147Z,4.20
2022-11-28T10:31:31.830Z,4.25
2022-11-28T10:34:41.358Z,4.34
2022-11-28T10:37:44.978Z,4.44
2022-11-28T10:40:55.863Z,4.53
2022-11-28T10:44:06.628Z,4.58
2022-11-28T10:47:20.263Z,4.63
2022-11-28T10:50:33.124Z,4.67
2022-11-28T10:53:49.309Z,4.71
2022-11-28T10:56:56.289Z,4.75
2022-11-28T11:00:06.317Z,4.77
2022-11-28T11:03:16.572Z,4.80
2022-11-28T11:06:20.078Z,4.84
2022-11-28T11:09:23.580Z,4.90
2022-11-28T11:12:31.281Z,5.00
2022-11-28T11:15:35.631Z,5.09
2022-11-28T11:18:53.949Z,5.16
2022-11-28T11:22:03.810Z,5.24
2022-11-28T11:25:13.951Z,5.31
2022-11-28T11:28:33.740Z,5.33
2022-11-28T11:31:43.940Z,5.35
2022-11-28T11:34:47.884Z,5.38
2022-11-28T11:37:51.747Z,5.38
2022-11-28T11:40:55.366Z,5.40
2022-11-28T11:44:28.720Z,5.45
2022-11-28T11:47:42.620Z,5.51
2022-11-28T11:50:54.435Z,5.53
2022-11-28T11:54:06.070Z,5.57
2022-11-28T11:57:32.002Z,5.57
2022-11-28T12:00:39.924Z,5.57
2022-11-28T12:03:53.298Z,5.58
2022-11-28T12:07:00.553Z,5.56
2022-11-28T12:10:07.313Z,5.55
2022-11-28T12:13:18.697Z,5.51
2022-11-28T12:16:40.875Z,5.52
2022-11-28T12:19:54.358Z,5.56
2022-11-28T12:23:10.840Z,5.55
2022-11-28T12:26:23.266Z,5.55
2022-11-28T12:29:43.539Z,5.52
2022-11-28T12:32:55.052Z,5.47
2022-11-28T12:36:10.565Z,5.40
2022-11-28T12:39:34.855Z,5.31
2022-11-28T12:42:49.651Z,5.30
2022-11-28T12:45:59.795Z,5.27
2022-11-28T12:49:17.906Z,5.25
2022-11-28T12:52:31.507Z,5.21
2022-11-28T12:55:44.967Z,5.20
2022-11-28T12:58:57.696Z,5.18
2022-11-28T13:02:16.025Z,5.11
2022-11-28T13:05:32.637Z,5.12
2022-11-28T13:09:00.223Z,5.15
2022-11-28T13:12:17.349Z,5.14
2022-11-28T13:15:35.690Z,5.16
2022-11-28T13:18:44.602Z,5.16
2022-11-28T13:21:58.614Z,5.14
2022-11-28T13:25:09.934Z,5.12
2022-11-28T13:28:19.997Z,5.08
2022-11-28T13:31:28.988Z,5.02
2022-11-28T13:34:34.271Z,4.95
2022-11-28T13:41:43.253Z,4.82
2022-11-28T13:44:50.405Z,4.78
2022-11-28T13:47:55.747Z,4.73
2022-11-28T13:51:01.974Z,4.69
2022-11-28T13:54:47.406Z,4.64
2022-11-28T13:57:51.867Z,4.59
2022-11-28T14:01:08.599Z,4.53
2022-11-28T14:04:14.312Z,4.47
2022-11-28T14:07:26.166Z,4.39
2022-11-28T14:10:53.749Z,4.35
2022-11-28T14:14:20.599Z,4.32
2022-11-28T14:17:40.177Z,4.28
2022-11-28T14:20:54.019Z,4.25
2022-11-28T14:24:04.382Z,4.20
2022-11-28T14:27:15.734Z,4.11
2022-11-28T14:30:30.641Z,4.03
2022-11-28T14:33:37.014Z,3.95
2022-11-28T14:36:41.524Z,3.85
2022-11-28T14:39:45.448Z,3.75
2022-11-28T14:43:09.014Z,3.67
2022-11-28T14:46:30.765Z,3.59
2022-11-28T14:49:34.447Z,3.51
2022-11-28T14:52:40.561Z,3.43
2022-11-28T14:55:44.412Z,3.34
2022-11-28T14:58:49.583Z,3.24
2022-11-28T15:02:01.836Z,3.14
2022-11-28T15:05:19.706Z,3.04
2022-11-28T15:08:50.341Z,2.95
2022-11-28T15:12:10.801Z,2.85
2022-11-28T15:15:16.938Z,2.72
2022-11-28T15:18:22.243Z,2.65
2022-11-28T15:21:25.651Z,2.55
2022-11-28T15:24:31.591Z,2.45
2022-11-28T15:27:35.501Z,2.41
2022-11-28T15:30:45.368Z,2.32
2022-11-28T15:33:49.637Z,2.23
2022-11-28T15:36:53.984Z,2.13
2022-11-28T15:39:59.056Z,2.04
2022-11-28T15:43:09.485Z,1.96
2022-11-28T15:46:19.429Z,1.88
2022-11-28T15:49:29.427Z,1.81
2022-11-28T15:52:33.018Z,1.76
2022-11-28T15:55:36.525Z,1.65
2022-11-28T15:58:41.267Z,1.58
2022-11-28T16:01:45.102Z,1.55
2022-11-28T16:04:48.918Z,1.49
2022-11-28T16:07:52.585Z,1.42
2022-11-28T16:10:57.218Z,1.34
2022-11-28T16:14:08.281Z,1.25
2022-11-28T16:17:18.994Z,1.17
2022-11-28T16:20:25.351Z,1.09
2022-11-28T16:23:30.059Z,1.02
2022-11-28T16:26:35.495Z,0.94
2022-11-28T16:29:47.024Z,0.89
2022-11-28T16:32:52.138Z,0.82
2022-11-28T16:36:17.193Z,0.75
2022-11-28T16:39:20.737Z,0.66
2022-11-28T16:42:24.327Z,0.62
2022-11-28T16:45:30.666Z,0.57
2022-11-28T16:48:36.741Z,0.57
2022-11-28T16:51:41.133Z,0.55
2022-11-28T16:54:44.570Z,0.51
2022-11-28T16:57:53.769Z,0.46
2022-11-28T17:01:02.079Z,0.43
2022-11-28T17:04:06.013Z,0.38
2022-11-28T17:07:13.174Z,0.34
2022-11-28T17:10:17.092Z,0.30
2022-11-28T17:13:21.396Z,0.27
2022-11-28T17:16:25.974Z,0.25
2022-11-28T17:19:29.298Z,0.20
2022-11-28T17:22:40.787Z,0.16
2022-11-28T17:25:44.636Z,0.12
2022-11-28T17:28:48.092Z,0.07
2022-11-28T17:31:54.582Z,0.05
2022-11-28T17:35:02.775Z,0.04
2022-11-28T17:38:06.217Z,-0.01
2022-11-28T17:41:13.541Z,-0.05
2022-11-28T17:44:20.861Z,-0.07
2022-11-28T17:47:24.148Z,-0.09
2022-11-28T17:50:27.861Z,-0.11
2022-11-28T17:53:31.310Z,-0.14
2022-11-28T17:56:34.754Z,-0.17
2022-11-28T17:59:38.067Z,-0.20
2022-11-28T18:02:41.629Z,-0.24
2022-11-28T18:05:46.516Z,-0.29
2022-11-28T18:08:50.593Z,-0.34
2022-11-28T18:11:53.984Z,-0.37
2022-11-28T18:14:59.150Z,-0.37
2022-11-28T18:18:03.813Z,-0.39
2022-11-28T18:21:08.478Z,-0.49
2022-11-28T18:24:11.866Z,-0.57
2022-11-28T18:27:15.280Z,-0.55
2022-11-28T18:30:19.301Z,-0.57
2022-11-28T18:33:22.608Z,-0.59
2022-11-28T18:36:27.069Z,-0.61
2022-11-28T18:39:30.841Z,-0.60
2022-11-28T18:42:34.156Z,-0.62
2022-11-28T18:45:37.573Z,-0.68
2022-11-28T18:48:42.986Z,-0.74
2022-11-28T18:51:46.369Z,-0.84
2022-11-28T18:54:49.804Z,-0.89
2022-11-28T18:57:53.164Z,-0.88
2022-11-28T19:00:56.756Z,-0.85
2022-11-28T19:04:02.076Z,-0.82
2022-11-28T19:07:05.557Z,-0.83
2022-11-28T19:10:12.033Z,-0.84
2022-11-28T19:13:15.668Z,-0.84
2022-11-28T19:16:20.808Z,-0.83
2022-11-28T19:19:24.345Z,-0.87
2022-11-28T19:22:27.752Z,-0.90
2022-11-28T19:25:31.970Z,-0.92
2022-11-28T19:28:36.969Z,-0.95
2022-11-28T19:31:41.300Z,-0.97
2022-11-28T19:34:44.821Z,-0.93
2022-11-28T19:37:48.137Z,-0.94
2022-11-28T19:40:51.561Z,-0.97
2022-11-28T19:43:55.285Z,-1.01
2022-11-28T19:46:58.811Z,-1.06
2022-11-28T19:50:02.145Z,-1.10
2022-11-28T19:53:05.632Z,-1.13
2022-11-28T19:56:13.199Z,-1.14
2022-11-28T19:59:17.595Z,-1.18
2022-11-28T20:02:22.818Z,-1.20
2022-11-28T20:05:26.333Z,-1.24
2022-11-28T20:08:29.798Z,-1.29
2022-11-28T20:11:34.852Z,-1.34
2022-11-28T20:14:38.277Z,-1.38
2022-11-28T20:17:41.837Z,-1.41
2022-11-28T20:20:45.334Z,-1.41
2022-11-28T20:23:49.822Z,-1.43
2022-11-28T20:26:53.464Z,-1.49
2022-11-28T20:29:57.069Z,-1.52
2022-11-28T20:33:00.498Z,-1.52
2022-11-28T20:36:10.223Z,-1.54
2022-11-28T20:39:13.728Z,-1.54
2022-11-28T20:42:17.522Z,-1.58
2022-11-28T20:45:21.026Z,-1.58
2022-11-28T20:48:24.418Z,-1.60
2022-11-28T20:51:29.835Z,-1.63
2022-11-28T20:54:33.194Z,-1.67
2022-11-28T20:57:36.569Z,-1.71
2022-11-28T21:00:39.891Z,-1.71
2022-11-28T21:03:43.409Z,-1.74
2022-11-28T21:06:48.527Z,-1.77
2022-11-28T21:09:53.477Z,-1.79
2022-11-28T21:12:56.942Z,-1.79
2022-11-28T21:16:06.639Z,-1.78
2022-11-28T21:19:10.395Z,-1.79
2022-11-28T21:22:13.676Z,-1.82
2022-11-28T21:25:17.187Z,-1.86
2022-11-28T21:28:20.488Z,-1.89
2022-11-28T21:31:26.148Z,-1.90
2022-11-28T21:34:29.643Z,-1.93
2022-11-28T21:37:33.247Z,-1.99
2022-11-28T21:40:36.646Z,-2.01
2022-11-28T21:43:40.148Z,-2.05
2022-11-28T21:46:43.883Z,-2.08
2022-11-28T21:49:47.268Z,-2.09
2022-11-28T21:52:50.802Z,-2.09
2022-11-28T21:55:54.869Z,-2.12
2022-11-28T21:58:58.268Z,-2.17
2022-11-28T22:02:02.664Z,-2.23
2022-11-28T22:05:09.547Z,-2.27
2022-11-28T22:08:12.974Z,-2.30
2022-11-28T22:11:17.063Z,-2.32
2022-11-28T22:14:20.487Z,-2.34
2022-11-28T22:17:24.498Z,-2.38
2022-11-28T22:20:27.891Z,-2.40
2022-11-28T22:23:34.521Z,-2.43
2022-11-28T22:26:37.957Z,-2.46
2022-11-28T22:29:41.374Z,-2.51
2022-11-28T22:32:44.872Z,-2.58
2022-11-28T22:35:48.217Z,-2.58
2022-11-28T22:38:56.097Z,-2.59
2022-11-28T22:41:59.726Z,-2.61
2022-11-28T22:45:03.758Z,-2.62
2022-11-28T22:48:07.997Z,-2.62
2022-11-28T22:51:14.136Z,-2.63
2022-11-28T22:54:17.549Z,-2.63
2022-11-28T22:57:21.025Z,-2.64
2022-11-28T23:00:24.463Z,-2.65
2022-11-28T23:03:28.132Z,-2.67
2022-11-28T23:06:34.169Z,-2.70
2022-11-28T23:09:37.461Z,-2.72
2022-11-28T23:12:41.446Z,-2.74
2022-11-28T23:15:49.740Z,-2.76
2022-11-28T23:18:58.255Z,-2.76
2022-11-28T23:22:01.808Z,-2.77
2022-11-28T23:25:06.529Z,-2.79
2022-11-28T23:28:09.909Z,-2.83
2022-11-28T23:31:16.022Z,-2.88
2022-11-28T23:34:19.348Z,-2.92
2022-11-28T23:37:22.773Z,-2.97
2022-11-28T23:40:26.376Z,-2.95
2022-11-28T23:43:29.879Z,-2.97
2022-11-28T23:46:34.037Z,-3.03
2022-11-28T23:49:37.509Z,-3.07
2022-11-28T23:52:40.893Z,-3.09
2022-11-28T23:55:44.396Z,-3.09
2022-11-28T23:58:48.608Z,-3.11
